sensor_id;sensor_type;location;lat;lon;timestamp;temperature;humidity
35445;DHT22;21562;49.476;6.086;2023-04-06T00:01:21;6.60;99.90
35445;DHT22;21562;49.476;6.086;2023-04-06T00:03:47;6.80;99.90
35445;DHT22;21562;49.476;6.086;2023-04-06T00:06:13;6.70;99.90
35445;DHT22;21562;49.476;6.086;2023-04-06T00:08:38;6.30;99.90
35445;DHT22;21562;49.476;6.086;2023-04-06T00:11:04;6.00;99.90
35445;DHT22;21562;49.476;6.086;2023-04-06T00:13:30;5.90;99.90
35445;DHT22;21562;49.476;6.086;2023-04-06T00:15:56;5.80;99.90
35445;DHT22;21562;49.476;6.086;2023-04-06T00:18:22;5.50;99.90
35445;DHT22;21562;49.476;6.086;2023-04-06T00:20:48;5.40;99.90
35445;DHT22;21562;49.476;6.086;2023-04-06T00:23:14;5.70;99.90
35445;DHT22;21562;49.476;6.086;2023-04-06T00:25:39;6.00;99.90
35445;DHT22;21562;49.476;6.086;2023-04-06T00:28:05;5.80;99.90
35445;DHT22;21562;49.476;6.086;2023-04-06T00:30:31;5.30;99.90
35445;DHT22;21562;49.476;6.086;2023-04-06T00:32:57;5.20;99.90
35445;DHT22;21562;49.476;6.086;2023-04-06T00:35:22;5.00;99.90
35445;DHT22;21562;49.476;6.086;2023-04-06T00:37:48;4.70;99.90
35445;DHT22;21562;49.476;6.086;2023-04-06T00:40:14;4.50;99.90
35445;DHT22;21562;49.476;6.086;2023-04-06T00:42:41;4.20;99.90
35445;DHT22;21562;49.476;6.086;2023-04-06T00:45:07;4.10;99.90
35445;DHT22;21562;49.476;6.086;2023-04-06T00:47:33;4.00;99.90
35445;DHT22;21562;49.476;6.086;2023-04-06T00:49:59;3.90;99.90
35445;DHT22;21562;49.476;6.086;2023-04-06T00:52:25;4.00;99.90
35445;DHT22;21562;49.476;6.086;2023-04-06T00:54:51;4.20;99.90
35445;DHT22;21562;49.476;6.086;2023-04-06T00:57:17;4.30;99.90
35445;DHT22;21562;49.476;6.086;2023-04-06T00:59:43;4.40;99.90
35445;DHT22;21562;49.476;6.086;2023-04-06T01:02:09;4.30;99.90
35445;DHT22;21562;49.476;6.086;2023-04-06T01:04:35;4.50;99.90
35445;DHT22;21562;49.476;6.086;2023-04-06T01:07:01;4.70;99.90
35445;DHT22;21562;49.476;6.086;2023-04-06T01:09:30;5.10;99.90
35445;DHT22;21562;49.476;6.086;2023-04-06T01:11:56;5.50;99.90
35445;DHT22;21562;49.476;6.086;2023-04-06T01:14:23;5.60;99.90
35445;DHT22;21562;49.476;6.086;2023-04-06T01:16:49;5.00;99.90
35445;DHT22;21562;49.476;6.086;2023-04-06T01:19:14;5.10;99.90
35445;DHT22;21562;49.476;6.086;2023-04-06T01:21:41;5.20;99.90
35445;DHT22;21562;49.476;6.086;2023-04-06T01:24:08;5.20;99.90
35445;DHT22;21562;49.476;6.086;2023-04-06T01:26:34;5.20;99.90
35445;DHT22;21562;49.476;6.086;2023-04-06T01:29:00;5.20;99.90
35445;DHT22;21562;49.476;6.086;2023-04-06T01:31:27;4.90;99.90
35445;DHT22;21562;49.476;6.086;2023-04-06T01:33:53;4.60;99.90
35445;DHT22;21562;49.476;6.086;2023-04-06T01:36:19;4.70;99.90
35445;DHT22;21562;49.476;6.086;2023-04-06T01:38:45;4.60;99.90
35445;DHT22;21562;49.476;6.086;2023-04-06T01:41:11;4.40;99.90
35445;DHT22;21562;49.476;6.086;2023-04-06T01:43:36;4.30;99.90
35445;DHT22;21562;49.476;6.086;2023-04-06T01:46:02;4.30;99.90
35445;DHT22;21562;49.476;6.086;2023-04-06T01:48:28;4.30;99.90
35445;DHT22;21562;49.476;6.086;2023-04-06T01:50:54;4.20;99.90
35445;DHT22;21562;49.476;6.086;2023-04-06T01:53:20;4.20;99.90
35445;DHT22;21562;49.476;6.086;2023-04-06T01:55:46;4.30;99.90
35445;DHT22;21562;49.476;6.086;2023-04-06T01:58:12;4.50;99.90
35445;DHT22;21562;49.476;6.086;2023-04-06T02:00:38;4.60;99.90
35445;DHT22;21562;49.476;6.086;2023-04-06T02:03:04;4.80;99.90
35445;DHT22;21562;49.476;6.086;2023-04-06T02:05:31;4.80;99.90
35445;DHT22;21562;49.476;6.086;2023-04-06T02:07:58;4.70;99.90
35445;DHT22;21562;49.476;6.086;2023-04-06T02:10:24;4.60;99.90
35445;DHT22;21562;49.476;6.086;2023-04-06T02:12:50;4.90;99.90
35445;DHT22;21562;49.476;6.086;2023-04-06T02:15:16;4.90;99.90
35445;DHT22;21562;49.476;6.086;2023-04-06T02:17:42;4.60;99.90
35445;DHT22;21562;49.476;6.086;2023-04-06T02:20:08;4.70;99.90
35445;DHT22;21562;49.476;6.086;2023-04-06T02:22:35;4.90;99.90
35445;DHT22;21562;49.476;6.086;2023-04-06T02:25:00;5.00;99.90
35445;DHT22;21562;49.476;6.086;2023-04-06T02:27:26;5.10;99.90
35445;DHT22;21562;49.476;6.086;2023-04-06T02:29:52;5.10;99.90
35445;DHT22;21562;49.476;6.086;2023-04-06T02:32:18;5.20;99.90
35445;DHT22;21562;49.476;6.086;2023-04-06T02:34:43;5.00;99.90
35445;DHT22;21562;49.476;6.086;2023-04-06T02:37:09;5.00;99.90
35445;DHT22;21562;49.476;6.086;2023-04-06T02:39:34;5.00;99.90
35445;DHT22;21562;49.476;6.086;2023-04-06T02:42:00;5.30;99.90
35445;DHT22;21562;49.476;6.086;2023-04-06T02:44:26;5.60;99.90
35445;DHT22;21562;49.476;6.086;2023-04-06T02:46:51;5.80;99.90
35445;DHT22;21562;49.476;6.086;2023-04-06T02:49:17;6.00;99.90
35445;DHT22;21562;49.476;6.086;2023-04-06T02:51:43;6.20;99.90
35445;DHT22;21562;49.476;6.086;2023-04-06T02:54:08;6.40;99.90
35445;DHT22;21562;49.476;6.086;2023-04-06T02:56:34;6.60;99.90
35445;DHT22;21562;49.476;6.086;2023-04-06T02:59:00;6.70;99.90
35445;DHT22;21562;49.476;6.086;2023-04-06T03:01:26;6.80;99.90
35445;DHT22;21562;49.476;6.086;2023-04-06T03:03:51;6.90;99.90
35445;DHT22;21562;49.476;6.086;2023-04-06T03:06:17;6.90;99.90
35445;DHT22;21562;49.476;6.086;2023-04-06T03:08:43;7.00;99.90
35445;DHT22;21562;49.476;6.086;2023-04-06T03:11:08;7.10;99.90
35445;DHT22;21562;49.476;6.086;2023-04-06T03:13:34;7.10;99.90
35445;DHT22;21562;49.476;6.086;2023-04-06T03:15:59;7.20;99.90
35445;DHT22;21562;49.476;6.086;2023-04-06T03:18:25;7.20;99.90
35445;DHT22;21562;49.476;6.086;2023-04-06T03:20:51;7.20;99.90
35445;DHT22;21562;49.476;6.086;2023-04-06T03:23:19;7.20;99.90
35445;DHT22;21562;49.476;6.086;2023-04-06T03:25:46;7.20;99.90
35445;DHT22;21562;49.476;6.086;2023-04-06T03:28:12;7.20;99.90
35445;DHT22;21562;49.476;6.086;2023-04-06T03:30:37;7.20;99.90
35445;DHT22;21562;49.476;6.086;2023-04-06T03:33:03;7.20;99.90
35445;DHT22;21562;49.476;6.086;2023-04-06T03:35:29;7.20;99.90
35445;DHT22;21562;49.476;6.086;2023-04-06T03:37:54;7.10;99.90
35445;DHT22;21562;49.476;6.086;2023-04-06T03:40:20;7.10;99.90
35445;DHT22;21562;49.476;6.086;2023-04-06T03:42:46;7.10;99.90
35445;DHT22;21562;49.476;6.086;2023-04-06T03:45:11;7.10;99.90
35445;DHT22;21562;49.476;6.086;2023-04-06T03:47:39;7.10;99.90
35445;DHT22;21562;49.476;6.086;2023-04-06T03:50:05;7.10;99.90
35445;DHT22;21562;49.476;6.086;2023-04-06T03:52:31;7.10;99.90
35445;DHT22;21562;49.476;6.086;2023-04-06T03:54:57;7.10;99.90
35445;DHT22;21562;49.476;6.086;2023-04-06T03:57:22;7.10;99.90
35445;DHT22;21562;49.476;6.086;2023-04-06T03:59:48;7.10;99.90
35445;DHT22;21562;49.476;6.086;2023-04-06T04:02:14;7.10;99.90
35445;DHT22;21562;49.476;6.086;2023-04-06T04:04:40;7.10;99.90
35445;DHT22;21562;49.476;6.086;2023-04-06T04:07:05;7.10;99.90
35445;DHT22;21562;49.476;6.086;2023-04-06T04:09:31;7.20;99.90
35445;DHT22;21562;49.476;6.086;2023-04-06T04:11:56;7.20;99.90
35445;DHT22;21562;49.476;6.086;2023-04-06T04:14:22;7.20;99.90
35445;DHT22;21562;49.476;6.086;2023-04-06T04:16:48;7.20;99.90
35445;DHT22;21562;49.476;6.086;2023-04-06T04:19:13;7.20;99.90
35445;DHT22;21562;49.476;6.086;2023-04-06T04:21:43;7.20;99.90
35445;DHT22;21562;49.476;6.086;2023-04-06T04:24:13;7.20;99.90
35445;DHT22;21562;49.476;6.086;2023-04-06T04:26:39;7.20;99.90
35445;DHT22;21562;49.476;6.086;2023-04-06T04:29:05;7.10;99.90
35445;DHT22;21562;49.476;6.086;2023-04-06T04:31:31;7.10;99.90
35445;DHT22;21562;49.476;6.086;2023-04-06T04:33:57;7.10;99.90
35445;DHT22;21562;49.476;6.086;2023-04-06T04:36:23;7.10;99.90
35445;DHT22;21562;49.476;6.086;2023-04-06T04:38:51;7.10;99.90
35445;DHT22;21562;49.476;6.086;2023-04-06T04:41:17;7.10;99.90
35445;DHT22;21562;49.476;6.086;2023-04-06T04:43:42;7.10;99.90
35445;DHT22;21562;49.476;6.086;2023-04-06T04:46:08;7.10;99.90
35445;DHT22;21562;49.476;6.086;2023-04-06T04:48:34;7.20;99.90
35445;DHT22;21562;49.476;6.086;2023-04-06T04:51:00;7.20;99.90
35445;DHT22;21562;49.476;6.086;2023-04-06T04:53:25;7.30;99.90
35445;DHT22;21562;49.476;6.086;2023-04-06T04:55:51;7.30;99.90
35445;DHT22;21562;49.476;6.086;2023-04-06T04:58:16;7.30;99.90
35445;DHT22;21562;49.476;6.086;2023-04-06T05:00:44;7.30;99.90
35445;DHT22;21562;49.476;6.086;2023-04-06T05:03:16;7.30;99.90
35445;DHT22;21562;49.476;6.086;2023-04-06T05:05:43;7.40;99.90
35445;DHT22;21562;49.476;6.086;2023-04-06T05:08:08;7.20;99.90
35445;DHT22;21562;49.476;6.086;2023-04-06T05:10:35;7.20;99.90
35445;DHT22;21562;49.476;6.086;2023-04-06T05:13:00;7.30;99.90
35445;DHT22;21562;49.476;6.086;2023-04-06T05:15:26;7.30;99.90
35445;DHT22;21562;49.476;6.086;2023-04-06T05:17:52;7.40;99.90
35445;DHT22;21562;49.476;6.086;2023-04-06T05:20:17;7.40;99.90
35445;DHT22;21562;49.476;6.086;2023-04-06T05:22:43;7.50;99.90
35445;DHT22;21562;49.476;6.086;2023-04-06T05:25:09;7.50;99.90
35445;DHT22;21562;49.476;6.086;2023-04-06T05:27:35;7.50;99.90
35445;DHT22;21562;49.476;6.086;2023-04-06T05:30:01;7.50;99.90
35445;DHT22;21562;49.476;6.086;2023-04-06T05:32:27;7.50;99.90
35445;DHT22;21562;49.476;6.086;2023-04-06T05:34:53;7.50;99.90
35445;DHT22;21562;49.476;6.086;2023-04-06T05:37:19;7.10;99.90
35445;DHT22;21562;49.476;6.086;2023-04-06T05:39:44;7.20;99.90
35445;DHT22;21562;49.476;6.086;2023-04-06T05:42:10;7.20;99.90
35445;DHT22;21562;49.476;6.086;2023-04-06T05:44:37;7.30;99.90
35445;DHT22;21562;49.476;6.086;2023-04-06T05:47:03;7.40;99.90
35445;DHT22;21562;49.476;6.086;2023-04-06T05:49:28;7.50;99.90
35445;DHT22;21562;49.476;6.086;2023-04-06T05:51:55;7.50;99.90
35445;DHT22;21562;49.476;6.086;2023-04-06T05:54:20;7.50;99.90
35445;DHT22;21562;49.476;6.086;2023-04-06T05:56:46;7.50;99.90
35445;DHT22;21562;49.476;6.086;2023-04-06T05:59:12;7.50;99.90
35445;DHT22;21562;49.476;6.086;2023-04-06T06:01:37;7.40;99.90
35445;DHT22;21562;49.476;6.086;2023-04-06T06:04:03;7.50;99.90
35445;DHT22;21562;49.476;6.086;2023-04-06T06:06:29;7.40;99.90
35445;DHT22;21562;49.476;6.086;2023-04-06T06:08:56;7.50;99.90
35445;DHT22;21562;49.476;6.086;2023-04-06T06:11:24;7.70;99.90
35445;DHT22;21562;49.476;6.086;2023-04-06T06:13:50;7.80;99.90
35445;DHT22;21562;49.476;6.086;2023-04-06T06:16:17;7.90;99.90
35445;DHT22;21562;49.476;6.086;2023-04-06T06:18:43;8.00;99.90
35445;DHT22;21562;49.476;6.086;2023-04-06T06:21:09;8.00;99.90
35445;DHT22;21562;49.476;6.086;2023-04-06T06:23:37;8.10;99.90
35445;DHT22;21562;49.476;6.086;2023-04-06T06:26:03;8.20;99.90
35445;DHT22;21562;49.476;6.086;2023-04-06T06:28:29;8.30;99.90
35445;DHT22;21562;49.476;6.086;2023-04-06T06:30:54;8.40;99.90
35445;DHT22;21562;49.476;6.086;2023-04-06T06:33:20;8.50;99.90
35445;DHT22;21562;49.476;6.086;2023-04-06T06:35:45;8.50;99.90
35445;DHT22;21562;49.476;6.086;2023-04-06T06:38:11;8.60;99.90
35445;DHT22;21562;49.476;6.086;2023-04-06T06:40:37;8.60;99.90
35445;DHT22;21562;49.476;6.086;2023-04-06T06:43:02;8.70;99.90
35445;DHT22;21562;49.476;6.086;2023-04-06T06:45:28;8.80;99.90
35445;DHT22;21562;49.476;6.086;2023-04-06T06:47:55;8.90;99.90
35445;DHT22;21562;49.476;6.086;2023-04-06T06:50:20;9.00;99.90
35445;DHT22;21562;49.476;6.086;2023-04-06T06:52:46;8.90;99.90
35445;DHT22;21562;49.476;6.086;2023-04-06T06:55:12;9.00;99.90
35445;DHT22;21562;49.476;6.086;2023-04-06T06:57:37;8.90;99.90
35445;DHT22;21562;49.476;6.086;2023-04-06T07:00:04;9.00;99.90
35445;DHT22;21562;49.476;6.086;2023-04-06T07:02:31;9.10;99.90
35445;DHT22;21562;49.476;6.086;2023-04-06T07:04:56;9.10;99.90
35445;DHT22;21562;49.476;6.086;2023-04-06T07:07:22;9.20;99.90
35445;DHT22;21562;49.476;6.086;2023-04-06T07:09:48;9.30;99.90
35445;DHT22;21562;49.476;6.086;2023-04-06T07:12:13;9.30;99.90
35445;DHT22;21562;49.476;6.086;2023-04-06T07:14:39;9.30;99.90
35445;DHT22;21562;49.476;6.086;2023-04-06T07:17:05;9.50;99.90
35445;DHT22;21562;49.476;6.086;2023-04-06T07:19:30;9.50;99.90
35445;DHT22;21562;49.476;6.086;2023-04-06T07:21:56;9.60;99.90
35445;DHT22;21562;49.476;6.086;2023-04-06T07:24:21;9.80;99.90
35445;DHT22;21562;49.476;6.086;2023-04-06T07:26:47;9.60;99.90
35445;DHT22;21562;49.476;6.086;2023-04-06T07:29:13;9.70;99.90
35445;DHT22;21562;49.476;6.086;2023-04-06T07:31:38;9.70;99.90
35445;DHT22;21562;49.476;6.086;2023-04-06T07:34:04;9.90;99.90
35445;DHT22;21562;49.476;6.086;2023-04-06T07:36:30;9.60;99.90
35445;DHT22;21562;49.476;6.086;2023-04-06T07:38:55;9.20;99.90
35445;DHT22;21562;49.476;6.086;2023-04-06T07:41:21;9.30;99.90
35445;DHT22;21562;49.476;6.086;2023-04-06T07:43:47;9.30;99.90
35445;DHT22;21562;49.476;6.086;2023-04-06T07:46:13;9.10;99.90
35445;DHT22;21562;49.476;6.086;2023-04-06T07:48:39;9.00;99.90
35445;DHT22;21562;49.476;6.086;2023-04-06T07:51:05;8.90;99.90
35445;DHT22;21562;49.476;6.086;2023-04-06T07:53:32;9.00;99.90
35445;DHT22;21562;49.476;6.086;2023-04-06T07:56:00;9.20;99.90
35445;DHT22;21562;49.476;6.086;2023-04-06T07:58:26;9.40;99.90
35445;DHT22;21562;49.476;6.086;2023-04-06T08:00:51;9.70;99.90
35445;DHT22;21562;49.476;6.086;2023-04-06T08:03:17;10.00;99.90
35445;DHT22;21562;49.476;6.086;2023-04-06T08:05:43;10.20;99.90
35445;DHT22;21562;49.476;6.086;2023-04-06T08:08:08;10.20;99.90
35445;DHT22;21562;49.476;6.086;2023-04-06T08:10:34;10.40;99.90
35445;DHT22;21562;49.476;6.086;2023-04-06T08:13:00;10.50;99.90
35445;DHT22;21562;49.476;6.086;2023-04-06T08:15:26;10.60;99.90
35445;DHT22;21562;49.476;6.086;2023-04-06T08:17:52;10.70;99.90
35445;DHT22;21562;49.476;6.086;2023-04-06T08:20:17;10.60;99.90
35445;DHT22;21562;49.476;6.086;2023-04-06T08:22:43;10.40;99.90
35445;DHT22;21562;49.476;6.086;2023-04-06T08:25:09;10.30;99.90
35445;DHT22;21562;49.476;6.086;2023-04-06T08:27:34;10.40;99.90
35445;DHT22;21562;49.476;6.086;2023-04-06T08:30:00;10.20;99.90
35445;DHT22;21562;49.476;6.086;2023-04-06T08:32:26;10.10;99.90
35445;DHT22;21562;49.476;6.086;2023-04-06T08:34:55;10.00;99.90
35445;DHT22;21562;49.476;6.086;2023-04-06T08:37:21;9.80;99.90
35445;DHT22;21562;49.476;6.086;2023-04-06T08:39:47;9.90;99.90
35445;DHT22;21562;49.476;6.086;2023-04-06T08:42:19;9.80;99.90
35445;DHT22;21562;49.476;6.086;2023-04-06T08:44:46;9.90;99.90
35445;DHT22;21562;49.476;6.086;2023-04-06T08:47:13;9.90;99.90
35445;DHT22;21562;49.476;6.086;2023-04-06T08:49:40;10.00;99.90
35445;DHT22;21562;49.476;6.086;2023-04-06T08:52:07;10.10;99.90
35445;DHT22;21562;49.476;6.086;2023-04-06T08:54:34;10.10;99.90
35445;DHT22;21562;49.476;6.086;2023-04-06T08:57:00;10.20;99.90
35445;DHT22;21562;49.476;6.086;2023-04-06T08:59:27;10.30;99.90
35445;DHT22;21562;49.476;6.086;2023-04-06T09:01:53;10.30;99.90
35445;DHT22;21562;49.476;6.086;2023-04-06T09:04:20;10.40;99.90
35445;DHT22;21562;49.476;6.086;2023-04-06T09:06:45;10.40;99.90
35445;DHT22;21562;49.476;6.086;2023-04-06T09:09:11;10.50;99.90
35445;DHT22;21562;49.476;6.086;2023-04-06T09:11:48;10.70;99.90
35445;DHT22;21562;49.476;6.086;2023-04-06T09:14:14;10.80;99.90
35445;DHT22;21562;49.476;6.086;2023-04-06T09:16:44;10.90;99.90
35445;DHT22;21562;49.476;6.086;2023-04-06T09:19:11;11.00;99.90
35445;DHT22;21562;49.476;6.086;2023-04-06T09:21:38;11.10;99.90
35445;DHT22;21562;49.476;6.086;2023-04-06T09:24:06;11.30;99.90
35445;DHT22;21562;49.476;6.086;2023-04-06T09:26:32;11.40;99.90
35445;DHT22;21562;49.476;6.086;2023-04-06T09:28:59;11.50;99.90
35445;DHT22;21562;49.476;6.086;2023-04-06T09:31:30;11.50;99.90
35445;DHT22;21562;49.476;6.086;2023-04-06T09:33:59;11.60;99.90
35445;DHT22;21562;49.476;6.086;2023-04-06T09:36:33;11.80;99.90
35445;DHT22;21562;49.476;6.086;2023-04-06T09:39:03;11.90;99.90
35445;DHT22;21562;49.476;6.086;2023-04-06T09:41:31;11.90;99.90
35445;DHT22;21562;49.476;6.086;2023-04-06T09:44:08;12.00;99.90
35445;DHT22;21562;49.476;6.086;2023-04-06T09:49:05;12.40;99.00
35445;DHT22;21562;49.476;6.086;2023-04-06T09:51:37;12.60;98.30
35445;DHT22;21562;49.476;6.086;2023-04-06T09:54:04;12.80;98.00
35445;DHT22;21562;49.476;6.086;2023-04-06T09:59:21;12.50;98.40
35445;DHT22;21562;49.476;6.086;2023-04-06T10:01:51;12.00;97.90
35445;DHT22;21562;49.476;6.086;2023-04-06T10:04:28;11.70;98.10
35445;DHT22;21562;49.476;6.086;2023-04-06T10:06:58;11.80;98.80
35445;DHT22;21562;49.476;6.086;2023-04-06T10:09:26;11.70;98.70
35445;DHT22;21562;49.476;6.086;2023-04-06T10:11:53;11.80;98.90
35445;DHT22;21562;49.476;6.086;2023-04-06T10:14:20;11.90;98.70
35445;DHT22;21562;49.476;6.086;2023-04-06T10:16:48;11.60;99.40
35445;DHT22;21562;49.476;6.086;2023-04-06T10:19:20;11.50;99.20
35445;DHT22;21562;49.476;6.086;2023-04-06T10:21:51;11.40;99.40
35445;DHT22;21562;49.476;6.086;2023-04-06T10:24:17;11.60;99.70
35445;DHT22;21562;49.476;6.086;2023-04-06T10:26:43;11.90;99.40
35445;DHT22;21562;49.476;6.086;2023-04-06T10:29:09;11.60;99.50
35445;DHT22;21562;49.476;6.086;2023-04-06T10:31:39;11.70;99.80
35445;DHT22;21562;49.476;6.086;2023-04-06T10:34:07;11.80;99.70
35445;DHT22;21562;49.476;6.086;2023-04-06T10:36:33;11.50;99.90
35445;DHT22;21562;49.476;6.086;2023-04-06T10:39:02;11.50;99.90
35445;DHT22;21562;49.476;6.086;2023-04-06T10:41:42;11.60;99.90
35445;DHT22;21562;49.476;6.086;2023-04-06T10:44:08;11.70;99.90
35445;DHT22;21562;49.476;6.086;2023-04-06T10:46:52;11.50;99.90
35445;DHT22;21562;49.476;6.086;2023-04-06T10:49:19;11.60;99.90
35445;DHT22;21562;49.476;6.086;2023-04-06T10:51:44;12.00;99.90
35445;DHT22;21562;49.476;6.086;2023-04-06T10:54:11;11.90;99.90
35445;DHT22;21562;49.476;6.086;2023-04-06T10:56:38;12.00;99.90
35445;DHT22;21562;49.476;6.086;2023-04-06T10:59:05;11.50;99.90
35445;DHT22;21562;49.476;6.086;2023-04-06T11:01:31;11.60;99.90
35445;DHT22;21562;49.476;6.086;2023-04-06T11:03:57;11.80;99.90
35445;DHT22;21562;49.476;6.086;2023-04-06T11:06:27;11.80;99.90
35445;DHT22;21562;49.476;6.086;2023-04-06T11:08:54;11.80;99.90
35445;DHT22;21562;49.476;6.086;2023-04-06T11:11:22;12.10;99.90
35445;DHT22;21562;49.476;6.086;2023-04-06T11:13:52;11.70;99.90
35445;DHT22;21562;49.476;6.086;2023-04-06T11:16:19;11.30;99.90
35445;DHT22;21562;49.476;6.086;2023-04-06T11:18:57;11.30;99.90
35445;DHT22;21562;49.476;6.086;2023-04-06T11:21:46;11.30;99.90
35445;DHT22;21562;49.476;6.086;2023-04-06T11:26:42;11.10;99.90
35445;DHT22;21562;49.476;6.086;2023-04-06T11:29:09;11.30;99.90
35445;DHT22;21562;49.476;6.086;2023-04-06T11:31:44;11.10;99.90
35445;DHT22;21562;49.476;6.086;2023-04-06T11:34:20;11.10;99.90
35445;DHT22;21562;49.476;6.086;2023-04-06T11:36:57;11.20;99.90
35445;DHT22;21562;49.476;6.086;2023-04-06T11:39:25;11.30;99.90
35445;DHT22;21562;49.476;6.086;2023-04-06T11:42:02;11.10;99.90
35445;DHT22;21562;49.476;6.086;2023-04-06T11:47:06;11.10;99.90
35445;DHT22;21562;49.476;6.086;2023-04-06T11:49:33;11.10;99.90
35445;DHT22;21562;49.476;6.086;2023-04-06T11:52:01;10.90;99.90
35445;DHT22;21562;49.476;6.086;2023-04-06T11:54:35;10.70;99.90
35445;DHT22;21562;49.476;6.086;2023-04-06T11:57:03;10.50;99.90
35445;DHT22;21562;49.476;6.086;2023-04-06T11:59:29;10.40;99.90
35445;DHT22;21562;49.476;6.086;2023-04-06T12:01:56;10.30;99.90
35445;DHT22;21562;49.476;6.086;2023-04-06T12:04:22;10.40;99.90
35445;DHT22;21562;49.476;6.086;2023-04-06T12:06:48;10.20;99.90
35445;DHT22;21562;49.476;6.086;2023-04-06T12:09:13;10.30;99.90
35445;DHT22;21562;49.476;6.086;2023-04-06T12:11:39;10.60;99.90
35445;DHT22;21562;49.476;6.086;2023-04-06T12:14:06;11.10;99.90
35445;DHT22;21562;49.476;6.086;2023-04-06T12:16:33;11.30;99.90
35445;DHT22;21562;49.476;6.086;2023-04-06T12:19:00;11.00;99.90
35445;DHT22;21562;49.476;6.086;2023-04-06T12:21:30;10.70;99.90
35445;DHT22;21562;49.476;6.086;2023-04-06T12:23:59;10.80;99.90
35445;DHT22;21562;49.476;6.086;2023-04-06T12:26:25;10.80;99.90
35445;DHT22;21562;49.476;6.086;2023-04-06T12:28:52;10.90;99.90
35445;DHT22;21562;49.476;6.086;2023-04-06T12:31:20;11.00;99.90
35445;DHT22;21562;49.476;6.086;2023-04-06T12:33:48;10.70;99.90
35445;DHT22;21562;49.476;6.086;2023-04-06T12:36:14;10.70;99.90
35445;DHT22;21562;49.476;6.086;2023-04-06T12:38:42;10.80;99.90
35445;DHT22;21562;49.476;6.086;2023-04-06T12:41:10;10.50;99.90
35445;DHT22;21562;49.476;6.086;2023-04-06T12:43:35;10.40;99.90
35445;DHT22;21562;49.476;6.086;2023-04-06T12:46:01;10.40;99.90
35445;DHT22;21562;49.476;6.086;2023-04-06T12:48:27;10.10;99.90
35445;DHT22;21562;49.476;6.086;2023-04-06T12:51:00;9.80;99.90
35445;DHT22;21562;49.476;6.086;2023-04-06T12:53:26;9.90;99.90
35445;DHT22;21562;49.476;6.086;2023-04-06T12:55:54;10.10;99.90
35445;DHT22;21562;49.476;6.086;2023-04-06T12:58:20;9.80;99.90
35445;DHT22;21562;49.476;6.086;2023-04-06T13:00:47;9.70;99.90
35445;DHT22;21562;49.476;6.086;2023-04-06T13:03:13;10.00;99.90
35445;DHT22;21562;49.476;6.086;2023-04-06T13:05:50;10.20;99.90
35445;DHT22;21562;49.476;6.086;2023-04-06T13:08:18;10.20;99.90
35445;DHT22;21562;49.476;6.086;2023-04-06T13:10:49;10.20;99.90
35445;DHT22;21562;49.476;6.086;2023-04-06T13:13:15;9.80;99.90
35445;DHT22;21562;49.476;6.086;2023-04-06T13:15:41;9.50;99.90
35445;DHT22;21562;49.476;6.086;2023-04-06T13:18:07;9.60;99.90
35445;DHT22;21562;49.476;6.086;2023-04-06T13:20:33;9.40;99.90
35445;DHT22;21562;49.476;6.086;2023-04-06T13:22:58;9.60;99.90
35445;DHT22;21562;49.476;6.086;2023-04-06T13:25:24;9.70;99.90
35445;DHT22;21562;49.476;6.086;2023-04-06T13:27:50;10.00;99.90
35445;DHT22;21562;49.476;6.086;2023-04-06T13:30:15;10.10;99.90
35445;DHT22;21562;49.476;6.086;2023-04-06T13:32:41;10.10;99.90
35445;DHT22;21562;49.476;6.086;2023-04-06T13:35:08;9.70;99.90
35445;DHT22;21562;49.476;6.086;2023-04-06T13:37:34;9.60;99.90
35445;DHT22;21562;49.476;6.086;2023-04-06T13:40:02;9.50;99.90
35445;DHT22;21562;49.476;6.086;2023-04-06T13:42:28;9.60;99.90
35445;DHT22;21562;49.476;6.086;2023-04-06T13:44:54;9.70;99.90
35445;DHT22;21562;49.476;6.086;2023-04-06T13:47:19;9.80;99.90
35445;DHT22;21562;49.476;6.086;2023-04-06T13:49:46;9.80;99.90
35445;DHT22;21562;49.476;6.086;2023-04-06T13:52:12;9.60;99.90
35445;DHT22;21562;49.476;6.086;2023-04-06T13:54:38;9.50;99.90
35445;DHT22;21562;49.476;6.086;2023-04-06T13:57:04;9.60;99.90
35445;DHT22;21562;49.476;6.086;2023-04-06T13:59:36;9.80;99.90
35445;DHT22;21562;49.476;6.086;2023-04-06T14:02:03;9.60;99.90
35445;DHT22;21562;49.476;6.086;2023-04-06T14:04:29;9.20;99.90
35445;DHT22;21562;49.476;6.086;2023-04-06T14:06:56;9.20;99.90
35445;DHT22;21562;49.476;6.086;2023-04-06T14:09:21;9.40;99.90
35445;DHT22;21562;49.476;6.086;2023-04-06T14:11:47;9.60;99.90
35445;DHT22;21562;49.476;6.086;2023-04-06T14:14:13;9.90;99.90
35445;DHT22;21562;49.476;6.086;2023-04-06T14:16:40;9.90;99.90
35445;DHT22;21562;49.476;6.086;2023-04-06T14:19:06;10.10;99.90
35445;DHT22;21562;49.476;6.086;2023-04-06T14:21:32;10.30;99.90
35445;DHT22;21562;49.476;6.086;2023-04-06T14:23:58;10.50;99.90
35445;DHT22;21562;49.476;6.086;2023-04-06T14:26:23;10.50;99.90
35445;DHT22;21562;49.476;6.086;2023-04-06T14:28:49;10.60;99.90
35445;DHT22;21562;49.476;6.086;2023-04-06T14:31:15;10.30;99.90
35445;DHT22;21562;49.476;6.086;2023-04-06T14:33:42;10.60;99.90
35445;DHT22;21562;49.476;6.086;2023-04-06T14:36:08;10.70;99.90
35445;DHT22;21562;49.476;6.086;2023-04-06T14:38:34;10.60;99.90
35445;DHT22;21562;49.476;6.086;2023-04-06T14:41:01;10.80;99.90
35445;DHT22;21562;49.476;6.086;2023-04-06T14:43:26;11.10;99.90
35445;DHT22;21562;49.476;6.086;2023-04-06T14:45:52;11.20;99.90
35445;DHT22;21562;49.476;6.086;2023-04-06T14:48:18;11.30;99.90
35445;DHT22;21562;49.476;6.086;2023-04-06T14:50:54;11.50;99.90
35445;DHT22;21562;49.476;6.086;2023-04-06T14:53:20;11.60;99.90
35445;DHT22;21562;49.476;6.086;2023-04-06T14:55:46;11.70;99.90
35445;DHT22;21562;49.476;6.086;2023-04-06T14:58:12;11.70;99.90
35445;DHT22;21562;49.476;6.086;2023-04-06T15:00:38;11.50;99.90
35445;DHT22;21562;49.476;6.086;2023-04-06T15:03:04;11.30;99.90
35445;DHT22;21562;49.476;6.086;2023-04-06T15:05:29;11.40;99.90
35445;DHT22;21562;49.476;6.086;2023-04-06T15:07:56;11.50;99.90
35445;DHT22;21562;49.476;6.086;2023-04-06T15:10:22;11.40;99.90
35445;DHT22;21562;49.476;6.086;2023-04-06T15:12:47;11.50;99.90
35445;DHT22;21562;49.476;6.086;2023-04-06T15:15:13;11.50;99.90
35445;DHT22;21562;49.476;6.086;2023-04-06T15:17:39;11.40;99.90
35445;DHT22;21562;49.476;6.086;2023-04-06T15:20:05;11.40;99.90
35445;DHT22;21562;49.476;6.086;2023-04-06T15:22:31;11.50;99.90
35445;DHT22;21562;49.476;6.086;2023-04-06T15:24:57;11.60;99.90
35445;DHT22;21562;49.476;6.086;2023-04-06T15:27:22;11.80;99.90
35445;DHT22;21562;49.476;6.086;2023-04-06T15:29:48;11.80;99.90
35445;DHT22;21562;49.476;6.086;2023-04-06T15:32:13;11.90;99.90
35445;DHT22;21562;49.476;6.086;2023-04-06T15:34:39;11.70;99.90
35445;DHT22;21562;49.476;6.086;2023-04-06T15:37:05;11.80;99.90
35445;DHT22;21562;49.476;6.086;2023-04-06T15:39:31;11.80;99.90
35445;DHT22;21562;49.476;6.086;2023-04-06T15:41:57;12.00;99.90
35445;DHT22;21562;49.476;6.086;2023-04-06T15:44:23;11.90;99.90
35445;DHT22;21562;49.476;6.086;2023-04-06T15:46:49;11.90;99.90